Time;durP1;ratioP1;P1;durP2;ratioP2;P2;SDS_P1;SDS_P2;PMS_P1;PMS_P2;Temp;Humidity;BMP_temperature;BMP_pressure;BME280_temperature;BME280_humidity;BME280_pressure;Samples;Min_cycle;Max_cycle;Signal;HPM_P1;HPM_P2
2022/11/25 00:01:38;;;;;;;60.93;32.40;;;6.40;99.90;;;;;;5052498;28;20410;-46
2022/11/25 00:04:05;;;;;;;53.53;31.57;;;6.50;99.90;;;;;;5034992;28;20801;-46
2022/11/25 00:06:34;;;;;;;52.30;32.40;;;6.40;99.90;;;;;;5052602;28;20454;-45
2022/11/25 00:09:03;;;;;;;45.90;30.73;;;5.90;99.90;;;;;;5051878;28;20472;-45
2022/11/25 00:11:30;;;;;;;53.70;30.50;;;6.40;99.90;;;;;;5052894;28;20406;-46
2022/11/25 00:13:57;;;;;;;46.37;29.93;;;6.40;99.90;;;;;;5034661;28;21102;-47
2022/11/25 00:16:26;;;;;;;49.80;32.13;;;6.40;99.90;;;;;;5052453;28;20463;-46
2022/11/25 00:18:54;;;;;;;47.07;32.80;;;6.60;99.90;;;;;;5052041;28;20435;-46
2022/11/25 00:21:23;;;;;;;48.40;30.23;;;6.80;99.90;;;;;;5052734;28;20932;-47
2022/11/25 00:23:52;;;;;;;44.93;30.30;;;6.70;99.90;;;;;;5052496;28;20443;-46
2022/11/25 00:26:19;;;;;;;50.40;31.70;;;6.50;99.90;;;;;;5034548;28;20524;-46
2022/11/25 00:28:47;;;;;;;45.67;30.60;;;6.60;99.90;;;;;;5051884;28;20462;-47
2022/11/25 00:31:16;;;;;;;54.27;31.53;;;6.50;99.90;;;;;;5034437;28;20531;-46
2022/11/25 00:33:44;;;;;;;52.77;31.47;;;6.60;99.90;;;;;;5034128;28;20612;-46
2022/11/25 00:36:16;;;;;;;49.40;31.10;;;6.20;99.90;;;;;;5034202;28;20451;-47
2022/11/25 00:38:43;;;;;;;44.10;28.80;;;6.00;99.90;;;;;;5051771;28;20445;-47
2022/11/25 00:46:39;;;;;;;55.90;32.57;;;6.60;99.90;;;;;;5035320;28;20862;-46
2022/11/25 00:49:07;;;;;;;56.93;33.57;;;6.50;99.90;;;;;;5051746;28;20460;-46
2022/11/25 00:51:34;;;;;;;50.70;31.93;;;6.60;99.90;;;;;;5034714;28;20455;-46
2022/11/25 00:54:01;;;;;;;53.30;30.73;;;6.60;99.90;;;;;;5034533;28;20448;-45
2022/11/25 00:56:29;;;;;;;51.70;31.10;;;6.80;99.90;;;;;;5034732;28;20447;-46
2022/11/25 00:58:56;;;;;;;56.37;33.33;;;6.00;99.90;;;;;;5033570;28;20459;-47
2022/11/25 01:01:23;;;;;;;54.07;32.93;;;6.50;99.90;;;;;;5051531;28;20407;-46
2022/11/25 01:03:49;;;;;;;51.67;33.30;;;6.40;99.90;;;;;;5051687;28;20440;-46
2022/11/25 01:06:18;;;;;;;54.87;35.33;;;7.30;99.90;;;;;;5051731;28;20463;-45
2022/11/25 01:08:44;;;;;;;51.90;32.80;;;6.80;99.90;;;;;;5050930;28;20431;-46
2022/11/25 01:11:13;;;;;;;55.47;33.60;;;6.00;99.90;;;;;;5033757;28;20447;-46
2022/11/25 01:13:39;;;;;;;58.03;36.77;;;6.40;99.90;;;;;;5051530;28;20452;-45
2022/11/25 01:16:08;;;;;;;56.80;33.50;;;6.60;99.90;;;;;;5033418;28;20478;-46
2022/11/25 01:18:35;;;;;;;55.13;33.87;;;6.80;99.90;;;;;;5032841;28;20463;-46
2022/11/25 01:21:06;;;;;;;53.73;32.90;;;6.60;99.90;;;;;;5051524;28;20440;-46
2022/11/25 01:23:34;;;;;;;59.13;35.03;;;6.50;99.90;;;;;;5033367;28;20440;-47
2022/11/25 01:26:02;;;;;;;56.43;33.43;;;6.50;99.90;;;;;;5051164;28;20450;-47
2022/11/25 01:28:29;;;;;;;53.50;34.07;;;6.70;99.90;;;;;;5050591;28;20884;-48
2022/11/25 01:31:00;;;;;;;48.20;30.57;;;6.50;99.90;;;;;;5033161;28;20471;-46
2022/11/25 01:33:26;;;;;;;53.17;33.33;;;6.00;99.90;;;;;;5051376;28;20631;-47
2022/11/25 01:35:53;;;;;;;50.77;33.20;;;6.80;99.90;;;;;;5051359;28;20428;-46
2022/11/25 01:38:21;;;;;;;53.80;31.73;;;7.30;99.90;;;;;;5051111;28;20432;-47
2022/11/25 01:40:49;;;;;;;50.20;32.57;;;6.60;99.90;;;;;;5033144;28;20448;-45
2022/11/25 01:43:16;;;;;;;51.80;32.30;;;6.80;99.90;;;;;;5051313;28;20435;-46
2022/11/25 01:45:43;;;;;;;49.67;31.87;;;6.50;99.90;;;;;;5052297;28;20951;-47
2022/11/25 01:48:16;;;;;;;49.53;32.30;;;6.50;99.90;;;;;;5037171;28;20452;-45
2022/11/25 01:50:44;;;;;;;57.07;33.23;;;6.40;99.90;;;;;;5054614;28;20490;-46
2022/11/25 01:53:13;;;;;;;54.60;32.00;;;6.60;99.90;;;;;;5037258;28;20426;-46
2022/11/25 01:55:43;;;;;;;54.90;33.53;;;6.90;99.90;;;;;;5055098;28;20434;-46
2022/11/25 01:58:15;;;;;;;44.70;31.73;;;6.50;99.90;;;;;;5055127;28;20406;-46
2022/11/25 02:00:49;;;;;;;47.07;31.10;;;6.60;99.90;;;;;;5036358;28;20916;-45
2022/11/25 02:03:18;;;;;;;45.33;30.70;;;6.70;99.90;;;;;;5037039;28;20419;-46
2022/11/25 02:05:50;;;;;;;50.00;32.50;;;6.80;99.90;;;;;;5037029;28;20577;-46
2022/11/25 02:08:19;;;;;;;47.20;32.00;;;6.80;99.90;;;;;;5055491;28;20402;-46
2022/11/25 02:10:46;;;;;;;47.60;31.60;;;6.80;99.90;;;;;;5036547;28;20492;-47
2022/11/25 02:13:14;;;;;;;45.93;29.80;;;7.20;99.90;;;;;;5037515;28;20455;-45
2022/11/25 02:15:40;;;;;;;50.40;33.70;;;6.80;99.90;;;;;;5055608;28;20462;-46
2022/11/25 02:18:08;;;;;;;49.17;32.83;;;6.70;99.90;;;;;;5056116;28;20406;-46
2022/11/25 02:20:34;;;;;;;48.20;30.80;;;6.80;99.90;;;;;;5054936;28;20774;-48
2022/11/25 02:23:13;;;;;;;45.47;30.07;;;6.70;99.90;;;;;;5055284;28;20442;-46
2022/11/25 02:25:45;;;;;;;42.10;30.30;;;6.70;99.90;;;;;;5037005;28;20872;-47
2022/11/25 02:28:18;;;;;;;38.90;27.27;;;6.20;99.90;;;;;;5036647;28;20422;-47
2022/11/25 02:30:45;;;;;;;41.90;27.53;;;7.00;99.90;;;;;;5036176;28;20605;-46
2022/11/25 02:33:12;;;;;;;39.10;28.20;;;7.00;99.90;;;;;;5036582;28;20426;-46
2022/11/25 02:35:40;;;;;;;42.40;28.10;;;6.90;99.90;;;;;;5036612;28;20473;-47
2022/11/25 02:38:11;;;;;;;46.13;27.90;;;6.80;99.90;;;;;;5036457;28;20956;-47
2022/11/25 02:40:44;;;;;;;39.17;26.30;;;7.00;99.90;;;;;;5035781;28;20945;-45
2022/11/25 02:43:13;;;;;;;44.93;28.53;;;6.90;99.90;;;;;;5036524;28;20960;-46
2022/11/25 02:45:49;;;;;;;39.17;25.47;;;6.80;99.90;;;;;;5054240;28;20575;-46
2022/11/25 02:48:16;;;;;;;38.57;25.97;;;6.90;99.90;;;;;;5036168;28;20459;-46
2022/11/25 02:50:43;;;;;;;40.00;28.17;;;6.90;99.90;;;;;;5053613;28;20474;-46
2022/11/25 02:53:11;;;;;;;41.00;27.73;;;7.00;99.90;;;;;;5036198;28;20463;-47
2022/11/25 02:55:37;;;;;;;40.80;27.83;;;6.80;99.90;;;;;;5036357;28;20469;-46
2022/11/25 02:58:04;;;;;;;38.70;27.90;;;6.80;99.90;;;;;;5034918;28;20932;-46
2022/11/25 03:00:32;;;;;;;38.70;25.73;;;6.80;99.90;;;;;;5035364;28;20527;-47
2022/11/25 03:02:59;;;;;;;37.50;28.20;;;6.90;99.90;;;;;;5053957;28;20755;-46
2022/11/25 03:05:26;;;;;;;39.73;27.70;;;6.80;99.90;;;;;;5036037;28;20460;-45
2022/11/25 03:07:52;;;;;;;48.63;28.70;;;6.80;99.90;;;;;;5036062;28;20435;-46
2022/11/25 03:10:21;;;;;;;48.00;30.47;;;6.70;99.90;;;;;;5035453;28;20561;-47
2022/11/25 03:12:49;;;;;;;43.43;27.93;;;7.40;99.90;;;;;;5037114;28;20448;-46
2022/11/25 03:15:15;;;;;;;54.20;28.70;;;6.70;99.90;;;;;;5036808;28;20823;-46
2022/11/25 03:17:44;;;;;;;42.93;27.10;;;7.00;99.90;;;;;;5037279;28;20422;-46
2022/11/25 03:20:13;;;;;;;46.33;28.50;;;6.50;99.90;;;;;;5036111;28;20426;-45
2022/11/25 03:22:40;;;;;;;44.33;28.70;;;6.60;99.90;;;;;;5054835;28;20489;-46
2022/11/25 03:25:08;;;;;;;37.77;25.63;;;6.80;99.90;;;;;;5054832;28;20439;-47
2022/11/25 03:27:35;;;;;;;39.47;26.43;;;6.60;99.90;;;;;;5036897;28;20462;-46
2022/11/25 03:30:05;;;;;;;43.57;27.83;;;6.80;99.90;;;;;;5035719;28;20460;-45
2022/11/25 03:32:32;;;;;;;47.10;29.30;;;6.70;99.90;;;;;;5054569;28;20829;-46
2022/11/25 03:35:00;;;;;;;46.73;28.60;;;6.90;99.90;;;;;;5053644;28;20432;-45
2022/11/25 03:37:27;;;;;;;41.13;29.17;;;6.70;99.90;;;;;;5035534;28;20474;-45
2022/11/25 03:39:53;;;;;;;47.47;28.70;;;6.90;99.90;;;;;;5035266;28;20451;-47
2022/11/25 03:42:20;;;;;;;45.80;30.63;;;6.80;99.90;;;;;;5035419;28;20451;-45
2022/11/25 03:44:46;;;;;;;44.63;27.07;;;6.70;99.90;;;;;;5053491;28;20444;-44
2022/11/25 03:47:13;;;;;;;49.83;30.57;;;6.40;99.90;;;;;;5035313;28;21012;-46
2022/11/25 03:49:40;;;;;;;45.87;29.17;;;6.60;99.90;;;;;;5034704;28;20455;-46
2022/11/25 03:52:08;;;;;;;52.77;30.00;;;7.40;99.90;;;;;;5035258;28;20499;-49
2022/11/25 03:54:35;;;;;;;45.00;29.40;;;6.80;99.90;;;;;;5035330;28;20482;-47
2022/11/25 03:57:31;;;;;;;46.03;29.60;;;6.80;99.90;;;;;;5049245;28;21005;-45
2022/11/25 03:59:58;;;;;;;45.03;29.17;;;6.90;99.90;;;;;;5034580;28;20448;-45
2022/11/25 04:02:25;;;;;;;51.80;29.30;;;6.80;99.90;;;;;;5035218;28;20969;-45
2022/11/25 04:04:52;;;;;;;45.10;28.03;;;6.70;99.90;;;;;;5053171;28;20441;-46
2022/11/25 04:07:20;;;;;;;47.00;27.23;;;7.00;99.90;;;;;;5052881;28;20461;-46
2022/11/25 04:09:48;;;;;;;46.93;28.50;;;6.80;99.90;;;;;;5034047;28;20577;-46
2022/11/25 04:15:09;;;;;;;47.47;27.17;;;6.90;99.90;;;;;;5020107;28;20954;-47
2022/11/25 04:17:36;;;;;;;48.83;30.63;;;6.60;99.90;;;;;;5034898;28;20536;-46
2022/11/25 04:20:03;;;;;;;46.47;28.80;;;7.10;99.90;;;;;;5033911;28;20471;-46
2022/11/25 04:22:31;;;;;;;52.30;31.00;;;6.70;99.90;;;;;;5034622;28;20522;-46
2022/11/25 04:24:59;;;;;;;47.67;28.00;;;7.10;99.90;;;;;;5034637;28;20461;-46
2022/11/25 04:27:26;;;;;;;46.33;29.17;;;6.80;99.90;;;;;;5034394;28;20828;-47
2022/11/25 04:29:54;;;;;;;49.60;29.60;;;6.70;99.90;;;;;;5033818;28;20478;-45
2022/11/25 04:32:22;;;;;;;44.30;26.30;;;6.90;99.90;;;;;;5034367;28;20487;-46
2022/11/25 04:34:49;;;;;;;47.40;29.13;;;6.50;99.90;;;;;;5034725;28;20444;-47
2022/11/25 04:37:15;;;;;;;53.63;28.77;;;6.70;99.90;;;;;;5034316;28;20652;-47
2022/11/25 04:39:44;;;;;;;43.60;26.73;;;7.10;99.90;;;;;;5033632;28;21087;-47
2022/11/25 04:42:33;;;;;;;46.00;30.37;;;7.10;99.90;;;;;;5052713;28;20465;-49
2022/11/25 04:45:05;;;;;;;41.60;28.57;;;6.80;99.90;;;;;;5034351;28;20440;-49
2022/11/25 04:47:32;;;;;;;48.67;27.07;;;7.00;99.90;;;;;;5033939;28;20495;-48
2022/11/25 04:49:59;;;;;;;41.83;27.20;;;6.90;99.90;;;;;;5033543;28;20664;-49
2022/11/25 04:52:26;;;;;;;45.63;28.53;;;6.90;99.90;;;;;;5033798;28;20531;-49
2022/11/25 04:54:54;;;;;;;50.23;30.40;;;7.00;99.90;;;;;;5033804;28;20539;-49
2022/11/25 04:57:21;;;;;;;48.73;29.30;;;7.60;99.90;;;;;;5051875;28;20543;-50
2022/11/25 04:59:47;;;;;;;52.83;29.70;;;6.80;99.90;;;;;;5051155;28;20404;-49
2022/11/25 05:02:15;;;;;;;52.50;30.93;;;6.80;99.90;;;;;;5034354;28;20443;-49
2022/11/25 05:04:48;;;;;;;47.43;29.00;;;7.00;99.90;;;;;;5034172;28;20473;-50
2022/11/25 05:07:16;;;;;;;47.50;30.37;;;6.90;99.90;;;;;;5033821;28;20479;-48
2022/11/25 05:09:45;;;;;;;52.27;31.00;;;6.90;99.90;;;;;;5033297;28;20433;-48
2022/11/25 05:12:20;;;;;;;50.27;29.47;;;7.10;99.90;;;;;;5033442;28;20828;-49
2022/11/25 05:14:48;;;;;;;47.20;27.97;;;7.10;99.90;;;;;;5033807;28;20427;-48
2022/11/25 05:17:17;;;;;;;55.40;31.43;;;7.10;99.90;;;;;;5033727;28;20470;-50
2022/11/25 05:19:44;;;;;;;52.60;29.47;;;7.30;99.90;;;;;;5032763;28;20948;-48
2022/11/25 05:22:13;;;;;;;58.97;30.73;;;6.90;99.90;;;;;;5033531;28;20453;-48
2022/11/25 05:24:41;;;;;;;53.27;31.00;;;7.10;99.90;;;;;;5033594;28;20467;-49
2022/11/25 05:27:08;;;;;;;51.00;30.77;;;7.70;99.90;;;;;;5033174;28;20933;-48
2022/11/25 05:29:36;;;;;;;48.67;30.77;;;7.20;99.90;;;;;;5032573;28;20453;-49
2022/11/25 05:32:04;;;;;;;52.57;29.50;;;7.20;99.90;;;;;;5033247;28;20530;-48
2022/11/25 05:34:31;;;;;;;52.83;31.43;;;7.30;99.90;;;;;;5033292;28;20585;-49
2022/11/25 05:36:58;;;;;;;54.17;30.60;;;7.10;99.90;;;;;;5033157;28;20535;-49
2022/11/25 05:39:25;;;;;;;50.57;31.60;;;6.90;99.90;;;;;;5032615;28;20458;-49
2022/11/25 05:42:17;;;;;;;49.80;30.27;;;6.90;99.90;;;;;;5033210;28;20453;-48
2022/11/25 05:44:44;;;;;;;45.43;28.43;;;7.40;99.90;;;;;;5051153;28;20424;-49
2022/11/25 05:47:11;;;;;;;44.60;28.50;;;7.20;99.90;;;;;;5033233;28;20443;-48
2022/11/25 05:49:39;;;;;;;52.20;30.93;;;7.10;99.90;;;;;;5032570;28;20461;-49
2022/11/25 05:52:06;;;;;;;52.70;30.57;;;7.30;99.90;;;;;;5032841;28;20495;-49
2022/11/25 05:54:39;;;;;;;44.07;30.00;;;6.90;99.90;;;;;;5033076;28;20450;-48
2022/11/25 05:57:06;;;;;;;43.93;30.27;;;7.00;99.90;;;;;;5032906;28;20452;-49
2022/11/25 05:59:40;;;;;;;45.10;29.07;;;7.20;99.90;;;;;;5032365;28;20428;-49
2022/11/25 06:02:19;;;;;;;59.67;37.83;;;7.30;99.90;;;;;;5033004;28;20858;-50
2022/11/25 06:04:46;;;;;;;40.00;28.60;;;7.10;99.90;;;;;;5033114;28;20460;-49
2022/11/25 06:07:13;;;;;;;40.80;28.60;;;7.10;99.90;;;;;;5032869;28;20480;-50
2022/11/25 06:09:41;;;;;;;38.40;25.93;;;6.60;99.90;;;;;;5032036;28;20969;-49
2022/11/25 06:12:07;;;;;;;47.17;29.53;;;7.10;99.90;;;;;;5032634;28;20475;-48
2022/11/25 06:14:39;;;;;;;39.20;25.60;;;7.10;99.90;;;;;;5032530;28;20448;-49
2022/11/25 06:17:06;;;;;;;46.63;28.27;;;7.10;99.90;;;;;;5032545;28;20469;-49
2022/11/25 06:19:46;;;;;;;42.87;27.87;;;7.30;99.90;;;;;;5032081;28;20899;-50
2022/11/25 06:22:13;;;;;;;49.70;29.10;;;7.20;99.90;;;;;;5032357;28;20464;-50
2022/11/25 06:24:40;;;;;;;41.40;26.80;;;7.30;99.90;;;;;;5032290;28;20544;-48
2022/11/25 06:27:07;;;;;;;52.57;31.00;;;7.20;99.90;;;;;;5032399;28;20591;-49
2022/11/25 06:29:35;;;;;;;51.13;29.47;;;7.00;99.90;;;;;;5032556;28;20436;-50
2022/11/25 06:32:02;;;;;;;50.03;29.73;;;7.10;99.90;;;;;;5034343;28;20484;-50
2022/11/25 06:34:45;;;;;;;48.23;28.57;;;7.00;99.90;;;;;;5036603;28;20961;-49
2022/11/25 06:37:23;;;;;;;42.93;29.00;;;6.80;99.90;;;;;;5035882;28;21124;-49
2022/11/25 06:39:50;;;;;;;51.90;30.00;;;6.80;99.90;;;;;;5053382;28;20439;-49
2022/11/25 06:42:16;;;;;;;47.60;30.47;;;6.90;99.90;;;;;;5053747;28;20439;-49
2022/11/25 06:44:43;;;;;;;47.67;29.30;;;7.00;99.90;;;;;;5053056;28;20444;-50
2022/11/25 06:47:10;;;;;;;50.47;30.50;;;6.60;99.90;;;;;;5054293;28;20514;-49
2022/11/25 06:49:36;;;;;;;45.93;30.10;;;6.80;99.90;;;;;;5053279;28;20430;-49
2022/11/25 06:52:04;;;;;;;49.87;31.13;;;6.70;99.90;;;;;;5053685;28;20590;-50
2022/11/25 06:54:31;;;;;;;57.73;31.63;;;6.60;99.90;;;;;;5053588;28;20437;-49
2022/11/25 06:56:58;;;;;;;58.23;32.67;;;6.60;99.90;;;;;;5053571;28;21029;-49
2022/11/25 06:59:25;;;;;;;48.10;29.67;;;6.90;99.90;;;;;;5052977;28;20437;-49
2022/11/25 07:01:52;;;;;;;51.57;31.77;;;6.90;99.90;;;;;;5053582;28;20439;-48
2022/11/25 07:04:18;;;;;;;54.77;31.53;;;6.60;99.90;;;;;;5053890;28;20451;-49
2022/11/25 07:06:45;;;;;;;57.00;32.27;;;7.10;99.90;;;;;;5035272;28;20467;-50
2022/11/25 07:09:13;;;;;;;62.67;32.63;;;7.10;99.90;;;;;;5053038;28;20435;-50
2022/11/25 07:11:40;;;;;;;64.57;36.27;;;6.60;99.90;;;;;;5053847;28;20487;-52
2022/11/25 07:14:10;;;;;;;60.37;33.00;;;7.00;99.90;;;;;;5053376;28;20443;-50
2022/11/25 07:16:38;;;;;;;62.40;35.27;;;6.90;99.90;;;;;;5053244;28;20766;-48
2022/11/25 07:19:05;;;;;;;59.93;31.57;;;6.60;99.90;;;;;;5052406;28;20444;-49
2022/11/25 07:21:33;;;;;;;59.17;33.80;;;6.80;99.90;;;;;;5053199;28;20432;-48
2022/11/25 07:24:02;;;;;;;58.37;32.00;;;7.00;99.90;;;;;;5052991;28;21040;-50
2022/11/25 07:26:33;;;;;;;54.93;30.90;;;6.90;99.90;;;;;;5052967;28;20451;-49
2022/11/25 07:29:02;;;;;;;54.40;30.43;;;6.70;99.90;;;;;;5052508;28;20469;-49
2022/11/25 07:31:30;;;;;;;60.67;30.27;;;7.00;99.90;;;;;;5053497;28;20463;-49
2022/11/25 07:33:59;;;;;;;54.67;31.67;;;7.10;99.90;;;;;;5035042;28;20934;-49
2022/11/25 07:36:27;;;;;;;62.40;31.77;;;7.00;99.90;;;;;;5052988;28;20453;-49
2022/11/25 07:38:53;;;;;;;66.23;33.53;;;7.00;99.90;;;;;;5052165;28;20408;-49
2022/11/25 07:41:21;;;;;;;62.57;31.13;;;7.10;99.90;;;;;;5052907;28;20460;-50
2022/11/25 07:43:52;;;;;;;69.23;31.50;;;6.90;99.90;;;;;;5051959;28;20959;-50
2022/11/25 07:46:24;;;;;;;69.33;33.47;;;6.60;99.90;;;;;;5034993;28;20450;-50
2022/11/25 07:48:52;;;;;;;70.87;38.90;;;6.40;99.90;;;;;;5052336;28;20429;-49
2022/11/25 07:51:20;;;;;;;57.53;31.17;;;7.10;99.90;;;;;;5052716;28;20793;-48
2022/11/25 07:53:48;;;;;;;68.50;33.33;;;7.20;99.90;;;;;;5034723;28;20548;-49
2022/11/25 07:56:16;;;;;;;71.90;32.27;;;7.10;99.90;;;;;;5052579;28;20527;-50
2022/11/25 07:58:44;;;;;;;59.70;32.27;;;7.00;99.90;;;;;;5052065;28;20420;-49
2022/11/25 08:01:14;;;;;;;72.87;31.97;;;7.20;99.90;;;;;;5052783;28;20812;-48
2022/11/25 08:03:42;;;;;;;59.23;33.00;;;7.00;99.90;;;;;;5052511;28;20437;-48
2022/11/25 08:06:11;;;;;;;64.50;33.23;;;7.50;99.90;;;;;;5052145;28;20436;-49
2022/11/25 08:08:39;;;;;;;74.03;32.87;;;7.50;99.90;;;;;;5051559;28;20419;-49
2022/11/25 08:11:07;;;;;;;75.20;33.87;;;7.30;99.90;;;;;;5052391;28;20753;-48
2022/11/25 08:13:33;;;;;;;60.33;31.87;;;7.20;99.90;;;;;;5051785;28;20490;-49
2022/11/25 08:16:00;;;;;;;72.43;29.47;;;7.30;99.90;;;;;;5051604;28;20456;-49
2022/11/25 08:18:29;;;;;;;63.10;30.27;;;7.40;99.90;;;;;;5051585;28;20441;-49
2022/11/25 08:20:58;;;;;;;70.20;28.77;;;7.40;99.90;;;;;;5052153;28;20948;-49
2022/11/25 08:23:25;;;;;;;59.97;29.87;;;7.00;99.90;;;;;;5051642;28;20445;-49
2022/11/25 08:25:52;;;;;;;66.30;31.17;;;7.40;99.90;;;;;;5051833;28;20488;-49
2022/11/25 08:28:18;;;;;;;61.50;31.00;;;7.50;99.90;;;;;;5052204;28;20510;-50
2022/11/25 08:30:45;;;;;;;70.97;29.87;;;7.50;99.90;;;;;;5051850;28;20433;-49
2022/11/25 08:33:11;;;;;;;63.53;29.53;;;7.60;99.90;;;;;;5052489;28;20485;-49
2022/11/25 08:35:39;;;;;;;71.57;28.70;;;7.30;99.90;;;;;;5052263;28;20432;-50
2022/11/25 08:38:07;;;;;;;60.70;30.27;;;7.10;99.90;;;;;;5034507;28;20461;-50
2022/11/25 08:40:35;;;;;;;60.60;28.10;;;7.40;99.90;;;;;;5051366;28;20434;-50
2022/11/25 08:43:02;;;;;;;58.93;27.57;;;7.60;99.90;;;;;;5051607;28;20423;-49
2022/11/25 08:45:29;;;;;;;53.93;26.27;;;7.60;99.90;;;;;;5051628;28;20438;-49
2022/11/25 08:47:57;;;;;;;57.20;27.37;;;7.60;99.90;;;;;;5033557;28;20558;-50
2022/11/25 08:50:24;;;;;;;63.60;29.00;;;8.10;99.90;;;;;;5050952;28;20404;-49
2022/11/25 08:52:52;;;;;;;64.70;29.67;;;7.70;99.90;;;;;;5051778;28;20745;-50
2022/11/25 08:55:20;;;;;;;55.43;27.70;;;7.80;99.90;;;;;;5033574;28;20465;-49
2022/11/25 08:57:46;;;;;;;67.63;30.10;;;7.70;99.90;;;;;;5051621;28;20492;-50
2022/11/25 09:00:14;;;;;;;72.57;31.60;;;7.70;99.90;;;;;;5050939;28;20408;-50
2022/11/25 09:02:41;;;;;;;58.43;31.30;;;7.80;99.90;;;;;;5051385;28;20438;-50
2022/11/25 09:05:10;;;;;;;76.10;31.60;;;7.90;99.90;;;;;;5033200;28;20541;-49
2022/11/25 09:07:37;;;;;;;55.17;28.40;;;7.60;99.90;;;;;;5051044;28;20427;-50
2022/11/25 09:10:06;;;;;;;52.73;27.63;;;7.70;99.90;;;;;;5050708;28;20409;-49
2022/11/25 09:12:33;;;;;;;42.00;25.23;;;7.70;99.90;;;;;;5051384;28;20469;-50
2022/11/25 09:14:59;;;;;;;52.47;27.67;;;7.80;99.90;;;;;;5051305;28;20426;-50
2022/11/25 09:17:26;;;;;;;58.03;28.73;;;7.80;99.90;;;;;;5051032;28;20432;-50
2022/11/25 09:19:53;;;;;;;55.13;26.93;;;7.90;99.90;;;;;;5050735;28;20499;-50
2022/11/25 09:22:20;;;;;;;54.50;27.80;;;8.00;99.90;;;;;;5051373;28;20438;-50
2022/11/25 09:24:47;;;;;;;47.70;28.50;;;8.00;99.90;;;;;;5051109;28;20775;-49
2022/11/25 09:27:15;;;;;;;52.57;29.30;;;8.20;99.90;;;;;;5051128;28;20470;-49
2022/11/25 09:29:41;;;;;;;49.13;27.93;;;7.60;99.90;;;;;;5050646;28;20405;-54
2022/11/25 09:32:08;;;;;;;53.67;27.50;;;7.80;99.90;;;;;;5051088;28;20473;-50
2022/11/25 09:34:34;;;;;;;51.77;27.83;;;7.90;99.90;;;;;;5051040;28;21275;-50
2022/11/25 09:37:01;;;;;;;52.00;27.37;;;7.50;99.90;;;;;;5051033;28;20473;-49
2022/11/25 09:39:29;;;;;;;50.10;30.70;;;8.30;99.90;;;;;;5032557;28;20653;-49
2022/11/25 09:48:00;;;;;;;55.50;28.73;;;8.20;99.90;;;;;;5051141;28;20431;-48
2022/11/25 09:50:39;;;;;;;42.97;25.60;;;8.10;99.90;;;;;;5050136;28;20401;-50
2022/11/25 09:53:14;;;;;;;49.67;29.20;;;8.10;99.90;;;;;;5049093;28;20480;-50
2022/11/25 09:55:45;;;;;;;42.67;26.17;;;7.90;99.90;;;;;;5046010;28;20478;-50
2022/11/25 09:58:23;;;;;;;41.90;27.30;;;8.10;99.90;;;;;;5040301;28;20439;-49
2022/11/25 10:00:52;;;;;;;48.93;26.73;;;8.50;99.90;;;;;;5050285;28;20448;-50
2022/11/25 10:03:30;;;;;;;41.60;25.53;;;8.20;99.90;;;;;;5032139;28;20454;-49
2022/11/25 10:06:01;;;;;;;39.77;25.43;;;8.20;99.90;;;;;;5041442;28;20490;-49
2022/11/25 10:08:32;;;;;;;40.60;25.80;;;7.90;99.90;;;;;;5050350;28;20911;-49
2022/11/25 10:11:07;;;;;;;41.03;25.47;;;8.50;99.90;;;;;;5032635;28;20426;-51
2022/11/25 10:13:42;;;;;;;40.73;25.37;;;8.30;99.90;;;;;;5036623;28;20451;-50
2022/11/25 10:16:21;;;;;;;42.80;25.20;;;8.10;99.90;;;;;;5054357;28;20446;-50
2022/11/25 10:18:58;;;;;;;43.10;27.37;;;8.60;99.90;;;;;;5034234;28;20501;-50
2022/11/25 10:21:26;;;;;;;48.67;28.10;;;8.50;99.90;;;;;;5053681;28;20434;-48
2022/11/25 10:23:52;;;;;;;48.77;30.17;;;8.70;99.90;;;;;;5053679;28;20496;-49
2022/11/25 10:26:22;;;;;;;45.20;27.77;;;8.30;99.90;;;;;;5052267;28;21016;-50
2022/11/25 10:28:55;;;;;;;48.27;27.97;;;8.40;99.90;;;;;;5051906;28;20504;-48
2022/11/25 10:31:28;;;;;;;48.23;28.67;;;8.60;99.90;;;;;;5052760;28;21163;-48
2022/11/25 10:33:58;;;;;;;48.07;28.57;;;8.70;99.90;;;;;;5052526;28;20494;-49
2022/11/25 10:36:27;;;;;;;42.37;26.43;;;8.10;99.90;;;;;;5052016;28;21068;-51
2022/11/25 10:38:58;;;;;;;43.47;27.63;;;9.00;99.90;;;;;;5051615;28;20439;-49
2022/11/25 10:41:30;;;;;;;41.83;27.67;;;9.00;99.90;;;;;;5053140;28;20435;-48
2022/11/25 10:43:57;;;;;;;43.73;29.70;;;8.40;99.90;;;;;;5054071;28;20950;-49
2022/11/25 10:46:36;;;;;;;48.37;30.60;;;8.80;99.90;;;;;;5054228;28;20432;-50
2022/11/25 10:49:13;;;;;;;43.50;29.83;;;8.40;99.90;;;;;;5062628;28;20477;-48
2022/11/25 10:51:45;;;;;;;43.53;29.30;;;9.50;99.90;;;;;;5061073;28;20444;-48
2022/11/25 10:54:16;;;;;;;42.83;28.90;;;8.80;99.90;;;;;;5060689;28;20482;-53
2022/11/25 10:56:48;;;;;;;42.87;30.37;;;8.70;99.90;;;;;;5061364;28;20458;-50
2022/11/25 10:59:23;;;;;;;49.33;29.27;;;9.00;99.90;;;;;;5073271;28;20413;-51
2022/11/25 11:01:51;;;;;;;45.83;29.73;;;8.80;99.90;;;;;;5073240;28;20437;-49
2022/11/25 11:04:19;;;;;;;42.70;30.73;;;8.40;99.90;;;;;;5073156;28;20427;-50
2022/11/25 11:06:47;;;;;;;41.77;29.70;;;8.90;99.90;;;;;;5053301;28;20457;-50
2022/11/25 11:09:32;;;;;;;42.30;29.10;;;8.50;99.90;;;;;;5055952;28;20469;-49
2022/11/25 11:12:12;;;;;;;44.53;30.70;;;9.20;99.90;;;;;;5039306;28;20459;-47
2022/11/25 11:14:39;;;;;;;42.63;30.27;;;9.00;99.90;;;;;;5056703;28;20454;-50
2022/11/25 11:17:29;;;;;;;42.83;31.00;;;8.90;99.90;;;;;;5054597;28;20513;-49
2022/11/25 11:20:19;;;;;;;40.13;28.87;;;9.00;99.90;;;;;;5072185;28;20405;-49
2022/11/25 11:22:49;;;;;;;53.90;30.80;;;8.90;99.90;;;;;;5072991;28;20931;-49
2022/11/25 11:25:28;;;;;;;47.30;31.10;;;8.80;99.90;;;;;;5073168;28;20426;-49
2022/11/25 11:27:55;;;;;;;46.97;31.13;;;8.90;99.90;;;;;;5063860;28;20943;-50
2022/11/25 11:30:24;;;;;;;41.07;30.00;;;9.00;99.90;;;;;;5052784;28;20520;-49
2022/11/25 11:33:02;;;;;;;44.13;30.27;;;9.10;99.90;;;;;;5053282;28;20565;-51
2022/11/25 11:35:44;;;;;;;38.80;28.10;;;9.10;99.90;;;;;;5053113;28;20435;-50
2022/11/25 11:38:23;;;;;;;43.23;29.33;;;8.90;99.90;;;;;;5052636;28;20816;-49
2022/11/25 11:40:57;;;;;;;40.77;29.70;;;8.90;99.90;;;;;;5052424;28;20437;-48
2022/11/25 11:43:42;;;;;;;40.40;29.60;;;9.20;99.90;;;;;;5059731;28;20448;-48
2022/11/25 11:46:22;;;;;;;39.83;27.87;;;9.00;99.90;;;;;;5072820;28;20453;-50
2022/11/25 11:49:01;;;;;;;38.57;28.70;;;8.80;99.90;;;;;;5071908;28;20448;-49
2022/11/25 11:51:38;;;;;;;39.80;28.27;;;8.90;99.90;;;;;;5072995;28;20429;-50
2022/11/25 11:54:09;;;;;;;46.83;28.93;;;9.00;99.90;;;;;;5072379;28;20832;-49
2022/11/25 11:56:41;;;;;;;37.63;28.70;;;9.00;99.90;;;;;;5072518;28;20450;-49
2022/11/25 11:59:41;;;;;;;39.00;28.23;;;9.20;99.90;;;;;;5071731;28;20437;-48
2022/11/25 12:02:22;;;;;;;40.40;28.07;;;8.80;99.90;;;;;;5072634;28;21011;-51
2022/11/25 12:05:01;;;;;;;42.93;30.00;;;8.80;99.90;;;;;;5072467;28;20528;-49
2022/11/25 12:07:34;;;;;;;45.13;31.30;;;8.70;99.90;;;;;;5072416;28;20449;-48
2022/11/25 12:10:07;;;;;;;42.57;30.20;;;8.60;99.90;;;;;;5071872;28;20452;-49
2022/11/25 12:12:39;;;;;;;41.03;30.47;;;8.00;99.90;;;;;;5071933;28;20438;-51
2022/11/25 12:15:15;;;;;;;39.90;28.80;;;8.60;99.90;;;;;;5071976;28;20436;-49
2022/11/25 12:17:48;;;;;;;38.70;28.83;;;8.80;99.90;;;;;;5063664;28;20438;-49
2022/11/25 12:20:25;;;;;;;47.00;30.50;;;8.40;99.90;;;;;;5051895;28;20430;-49
2022/11/25 12:22:57;;;;;;;39.80;28.00;;;8.30;99.90;;;;;;5051762;28;20431;-49
2022/11/25 12:25:29;;;;;;;39.93;29.70;;;8.80;99.90;;;;;;5051909;28;20446;-50
2022/11/25 12:28:01;;;;;;;40.37;29.80;;;8.30;99.90;;;;;;5051994;28;20447;-50
2022/11/25 12:30:33;;;;;;;40.40;28.30;;;8.20;99.90;;;;;;5051138;28;21033;-49
2022/11/25 12:33:06;;;;;;;40.00;27.83;;;8.20;99.90;;;;;;5052071;28;20473;-50
2022/11/25 12:35:46;;;;;;;40.07;27.67;;;8.30;99.90;;;;;;5051638;28;20986;-50
2022/11/25 12:38:26;;;;;;;42.10;28.47;;;8.30;99.90;;;;;;5051720;28;20430;-49
2022/11/25 12:41:00;;;;;;;44.90;29.50;;;7.70;99.90;;;;;;5051784;28;20441;-49
2022/11/25 12:43:39;;;;;;;43.77;30.33;;;8.10;99.90;;;;;;5051989;28;20509;-49
2022/11/25 12:46:19;;;;;;;45.20;30.20;;;8.40;99.90;;;;;;5052408;28;20450;-50
2022/11/25 12:48:46;;;;;;;46.83;31.33;;;8.00;99.90;;;;;;5051024;28;20434;-49
2022/11/25 12:51:26;;;;;;;41.80;29.77;;;8.20;99.90;;;;;;5051589;28;20546;-49
2022/11/25 12:54:02;;;;;;;46.50;29.43;;;8.40;99.90;;;;;;5050919;28;20470;-49
2022/11/25 12:56:46;;;;;;;39.73;28.23;;;7.60;99.90;;;;;;5051622;28;20827;-50
2022/11/25 12:59:33;;;;;;;40.67;27.77;;;8.30;99.90;;;;;;5050465;28;20854;-50
2022/11/25 13:02:22;;;;;;;40.50;27.83;;;8.10;99.90;;;;;;5051245;28;20435;-49
2022/11/25 13:05:08;;;;;;;42.93;26.07;;;8.20;99.90;;;;;;5032869;28;20447;-51